sensor_id;sensor_type;location;lat;lon;timestamp;P1;durP1;ratioP1;P2;durP2;ratioP2
583;SDS011;27024;54.068;12.116;2023-04-09T09:18:41;12.43;;;5.60;;
583;SDS011;27024;54.068;12.116;2023-04-09T09:21:14;14.57;;;6.65;;
583;SDS011;27024;54.068;12.116;2023-04-09T09:23:43;12.25;;;6.13;;
583;SDS011;27024;54.068;12.116;2023-04-09T09:26:11;14.70;;;5.70;;
583;SDS011;27024;54.068;12.116;2023-04-09T09:28:50;14.90;;;5.85;;
583;SDS011;27024;54.068;12.116;2023-04-09T09:31:19;15.18;;;6.00;;
583;SDS011;27024;54.068;12.116;2023-04-09T09:33:47;13.20;;;5.28;;
583;SDS011;27024;54.068;12.116;2023-04-09T09:36:33;13.65;;;6.35;;
583;SDS011;27024;54.068;12.116;2023-04-09T09:39:00;14.35;;;7.03;;
583;SDS011;27024;54.068;12.116;2023-04-09T09:41:36;14.98;;;6.20;;
583;SDS011;27024;54.068;12.116;2023-04-09T09:44:04;16.50;;;7.40;;
583;SDS011;27024;54.068;12.116;2023-04-09T09:46:34;14.10;;;6.18;;
583;SDS011;27024;54.068;12.116;2023-04-09T09:49:04;12.60;;;6.15;;
583;SDS011;27024;54.068;12.116;2023-04-09T09:51:32;14.85;;;6.70;;
583;SDS011;27024;54.068;12.116;2023-04-09T09:54:02;14.80;;;6.85;;
583;SDS011;27024;54.068;12.116;2023-04-09T09:56:30;14.35;;;5.72;;
583;SDS011;27024;54.068;12.116;2023-04-09T09:59:12;12.18;;;6.65;;
583;SDS011;27024;54.068;12.116;2023-04-09T10:01:45;12.65;;;5.55;;
583;SDS011;27024;54.068;12.116;2023-04-09T10:04:13;14.95;;;5.63;;
583;SDS011;27024;54.068;12.116;2023-04-09T10:06:42;13.85;;;6.40;;
583;SDS011;27024;54.068;12.116;2023-04-09T10:09:10;13.20;;;6.30;;
583;SDS011;27024;54.068;12.116;2023-04-09T10:11:38;12.15;;;5.45;;
583;SDS011;27024;54.068;12.116;2023-04-09T10:14:10;12.80;;;5.32;;
583;SDS011;27024;54.068;12.116;2023-04-09T10:16:38;12.02;;;5.20;;
583;SDS011;27024;54.068;12.116;2023-04-09T10:19:05;10.38;;;5.03;;
583;SDS011;27024;54.068;12.116;2023-04-09T10:24:19;12.10;;;5.00;;
583;SDS011;27024;54.068;12.116;2023-04-09T10:26:47;11.32;;;5.43;;
583;SDS011;27024;54.068;12.116;2023-04-09T10:29:15;9.02;;;4.95;;
583;SDS011;27024;54.068;12.116;2023-04-09T10:31:46;11.48;;;4.90;;
583;SDS011;27024;54.068;12.116;2023-04-09T10:34:15;10.48;;;5.50;;
583;SDS011;27024;54.068;12.116;2023-04-09T10:36:45;12.75;;;4.63;;
583;SDS011;27024;54.068;12.116;2023-04-09T10:39:18;8.68;;;4.10;;
583;SDS011;27024;54.068;12.116;2023-04-09T10:41:47;13.35;;;4.78;;
583;SDS011;27024;54.068;12.116;2023-04-09T10:44:18;11.57;;;4.60;;
583;SDS011;27024;54.068;12.116;2023-04-09T10:46:51;11.40;;;4.72;;
583;SDS011;27024;54.068;12.116;2023-04-09T10:49:25;8.02;;;4.10;;
583;SDS011;27024;54.068;12.116;2023-04-09T10:54:36;9.38;;;4.38;;
583;SDS011;27024;54.068;12.116;2023-04-09T10:59:34;10.75;;;4.07;;
583;SDS011;27024;54.068;12.116;2023-04-09T11:02:07;9.38;;;4.40;;
583;SDS011;27024;54.068;12.116;2023-04-09T11:05:14;8.82;;;4.57;;
583;SDS011;27024;54.068;12.116;2023-04-09T11:07:34;8.15;;;4.07;;
583;SDS011;27024;54.068;12.116;2023-04-09T11:10:07;7.50;;;3.83;;
583;SDS011;27024;54.068;12.116;2023-04-09T11:12:34;9.15;;;4.40;;
583;SDS011;27024;54.068;12.116;2023-04-09T11:15:02;9.27;;;4.03;;
583;SDS011;27024;54.068;12.116;2023-04-09T11:17:29;7.32;;;3.70;;
583;SDS011;27024;54.068;12.116;2023-04-09T11:20:02;8.57;;;3.80;;
583;SDS011;27024;54.068;12.116;2023-04-09T11:22:29;9.88;;;3.78;;
583;SDS011;27024;54.068;12.116;2023-04-09T11:24:56;7.25;;;3.90;;
583;SDS011;27024;54.068;12.116;2023-04-09T11:27:23;8.02;;;4.30;;
583;SDS011;27024;54.068;12.116;2023-04-09T11:29:54;9.98;;;3.97;;
583;SDS011;27024;54.068;12.116;2023-04-09T11:32:21;8.52;;;4.00;;
583;SDS011;27024;54.068;12.116;2023-04-09T11:34:51;8.20;;;3.70;;
583;SDS011;27024;54.068;12.116;2023-04-09T11:37:18;7.45;;;3.50;;
583;SDS011;27024;54.068;12.116;2023-04-09T11:39:45;7.80;;;3.78;;
583;SDS011;27024;54.068;12.116;2023-04-09T11:42:12;7.32;;;4.15;;
583;SDS011;27024;54.068;12.116;2023-04-09T11:44:40;7.97;;;3.90;;
583;SDS011;27024;54.068;12.116;2023-04-09T11:47:07;9.27;;;3.83;;
583;SDS011;27024;54.068;12.116;2023-04-09T11:49:35;7.78;;;3.63;;
583;SDS011;27024;54.068;12.116;2023-04-09T11:52:02;9.00;;;4.95;;
583;SDS011;27024;54.068;12.116;2023-04-09T11:54:33;7.82;;;3.80;;
583;SDS011;27024;54.068;12.116;2023-04-09T11:57:03;8.32;;;3.92;;
583;SDS011;27024;54.068;12.116;2023-04-09T11:59:31;9.02;;;3.95;;
583;SDS011;27024;54.068;12.116;2023-04-09T12:01:58;9.27;;;3.88;;
583;SDS011;27024;54.068;12.116;2023-04-09T12:04:25;8.02;;;4.35;;
583;SDS011;27024;54.068;12.116;2023-04-09T12:06:56;8.85;;;4.30;;
583;SDS011;27024;54.068;12.116;2023-04-09T12:09:24;9.00;;;4.47;;
583;SDS011;27024;54.068;12.116;2023-04-09T12:11:52;8.70;;;4.03;;
583;SDS011;27024;54.068;12.116;2023-04-09T12:14:20;10.80;;;5.13;;
583;SDS011;27024;54.068;12.116;2023-04-09T12:16:51;8.55;;;3.90;;
583;SDS011;27024;54.068;12.116;2023-04-09T12:19:18;8.90;;;3.92;;
583;SDS011;27024;54.068;12.116;2023-04-09T12:21:50;10.38;;;4.05;;
583;SDS011;27024;54.068;12.116;2023-04-09T12:24:22;8.82;;;3.92;;
583;SDS011;27024;54.068;12.116;2023-04-09T12:26:51;7.07;;;3.72;;
583;SDS011;27024;54.068;12.116;2023-04-09T12:29:18;8.20;;;3.65;;
583;SDS011;27024;54.068;12.116;2023-04-09T12:31:46;9.88;;;4.05;;
583;SDS011;27024;54.068;12.116;2023-04-09T12:34:13;8.13;;;3.65;;
583;SDS011;27024;54.068;12.116;2023-04-09T12:36:40;6.65;;;3.85;;
583;SDS011;27024;54.068;12.116;2023-04-09T12:39:07;7.00;;;3.75;;
583;SDS011;27024;54.068;12.116;2023-04-09T12:41:35;8.10;;;3.80;;
583;SDS011;27024;54.068;12.116;2023-04-09T12:44:02;7.68;;;3.78;;
583;SDS011;27024;54.068;12.116;2023-04-09T12:46:30;7.25;;;3.97;;
583;SDS011;27024;54.068;12.116;2023-04-09T12:48:58;9.63;;;4.38;;
583;SDS011;27024;54.068;12.116;2023-04-09T12:51:25;7.55;;;3.90;;
583;SDS011;27024;54.068;12.116;2023-04-09T12:53:51;6.97;;;3.63;;
583;SDS011;27024;54.068;12.116;2023-04-09T12:56:19;10.38;;;5.53;;
583;SDS011;27024;54.068;12.116;2023-04-09T12:58:46;8.73;;;3.65;;
583;SDS011;27024;54.068;12.116;2023-04-09T13:01:12;6.65;;;3.15;;
583;SDS011;27024;54.068;12.116;2023-04-09T13:03:39;7.30;;;3.92;;
583;SDS011;27024;54.068;12.116;2023-04-09T13:06:07;8.43;;;3.45;;
583;SDS011;27024;54.068;12.116;2023-04-09T13:08:34;7.78;;;3.40;;
583;SDS011;27024;54.068;12.116;2023-04-09T13:11:01;5.45;;;3.50;;
583;SDS011;27024;54.068;12.116;2023-04-09T13:13:28;6.40;;;3.05;;
583;SDS011;27024;54.068;12.116;2023-04-09T13:15:55;9.57;;;4.57;;
583;SDS011;27024;54.068;12.116;2023-04-09T13:18:21;8.73;;;4.07;;
583;SDS011;27024;54.068;12.116;2023-04-09T13:20:48;8.00;;;3.97;;
583;SDS011;27024;54.068;12.116;2023-04-09T13:23:15;6.50;;;3.33;;
583;SDS011;27024;54.068;12.116;2023-04-09T13:25:42;6.07;;;3.70;;
583;SDS011;27024;54.068;12.116;2023-04-09T13:28:09;7.10;;;3.42;;
583;SDS011;27024;54.068;12.116;2023-04-09T13:30:36;8.63;;;3.40;;
583;SDS011;27024;54.068;12.116;2023-04-09T13:33:04;8.00;;;3.90;;
583;SDS011;27024;54.068;12.116;2023-04-09T13:35:30;6.65;;;3.75;;
583;SDS011;27024;54.068;12.116;2023-04-09T13:37:57;7.82;;;3.55;;
583;SDS011;27024;54.068;12.116;2023-04-09T13:40:24;10.23;;;4.07;;
583;SDS011;27024;54.068;12.116;2023-04-09T13:42:51;8.27;;;3.63;;
583;SDS011;27024;54.068;12.116;2023-04-09T13:45:18;7.90;;;3.75;;
583;SDS011;27024;54.068;12.116;2023-04-09T13:47:46;8.15;;;4.40;;
583;SDS011;27024;54.068;12.116;2023-04-09T13:50:13;9.95;;;3.90;;
583;SDS011;27024;54.068;12.116;2023-04-09T13:52:39;7.07;;;3.20;;
583;SDS011;27024;54.068;12.116;2023-04-09T13:55:07;9.18;;;3.80;;
583;SDS011;27024;54.068;12.116;2023-04-09T13:57:34;7.78;;;3.75;;
583;SDS011;27024;54.068;12.116;2023-04-09T14:00:01;8.43;;;3.67;;
583;SDS011;27024;54.068;12.116;2023-04-09T14:02:30;8.45;;;3.75;;
583;SDS011;27024;54.068;12.116;2023-04-09T14:04:58;6.85;;;3.40;;
583;SDS011;27024;54.068;12.116;2023-04-09T14:07:25;7.43;;;3.58;;
583;SDS011;27024;54.068;12.116;2023-04-09T14:09:52;5.75;;;3.40;;
583;SDS011;27024;54.068;12.116;2023-04-09T14:12:19;7.03;;;3.72;;
583;SDS011;27024;54.068;12.116;2023-04-09T14:14:46;7.60;;;3.95;;
583;SDS011;27024;54.068;12.116;2023-04-09T14:17:13;6.72;;;3.90;;
583;SDS011;27024;54.068;12.116;2023-04-09T14:19:40;10.48;;;3.95;;
583;SDS011;27024;54.068;12.116;2023-04-09T14:22:07;8.40;;;3.83;;
583;SDS011;27024;54.068;12.116;2023-04-09T14:24:34;10.45;;;4.05;;
583;SDS011;27024;54.068;12.116;2023-04-09T14:27:05;7.32;;;4.07;;
583;SDS011;27024;54.068;12.116;2023-04-09T14:29:33;7.32;;;3.85;;
583;SDS011;27024;54.068;12.116;2023-04-09T14:32:00;8.57;;;4.93;;
583;SDS011;27024;54.068;12.116;2023-04-09T14:34:28;8.20;;;3.83;;
583;SDS011;27024;54.068;12.116;2023-04-09T14:36:55;8.07;;;4.00;;
583;SDS011;27024;54.068;12.116;2023-04-09T14:39:22;8.88;;;4.68;;
583;SDS011;27024;54.068;12.116;2023-04-09T14:41:49;7.32;;;4.25;;
583;SDS011;27024;54.068;12.116;2023-04-09T14:44:15;5.85;;;3.60;;
583;SDS011;27024;54.068;12.116;2023-04-09T14:46:43;8.80;;;3.95;;
583;SDS011;27024;54.068;12.116;2023-04-09T14:49:10;6.82;;;3.72;;
583;SDS011;27024;54.068;12.116;2023-04-09T14:51:37;6.97;;;3.22;;
583;SDS011;27024;54.068;12.116;2023-04-09T14:54:04;5.88;;;2.88;;
583;SDS011;27024;54.068;12.116;2023-04-09T14:56:31;4.90;;;2.45;;
583;SDS011;27024;54.068;12.116;2023-04-09T14:58:58;6.38;;;2.92;;
583;SDS011;27024;54.068;12.116;2023-04-09T15:01:25;5.97;;;2.90;;
583;SDS011;27024;54.068;12.116;2023-04-09T15:03:53;6.85;;;2.60;;
583;SDS011;27024;54.068;12.116;2023-04-09T15:06:21;7.47;;;3.33;;
583;SDS011;27024;54.068;12.116;2023-04-09T15:08:48;7.75;;;2.92;;
583;SDS011;27024;54.068;12.116;2023-04-09T15:11:15;6.38;;;2.97;;
583;SDS011;27024;54.068;12.116;2023-04-09T15:13:42;5.75;;;3.05;;
583;SDS011;27024;54.068;12.116;2023-04-09T15:16:19;8.73;;;3.13;;
583;SDS011;27024;54.068;12.116;2023-04-09T15:18:47;6.20;;;2.60;;
583;SDS011;27024;54.068;12.116;2023-04-09T15:21:18;7.38;;;3.10;;
583;SDS011;27024;54.068;12.116;2023-04-09T15:23:44;9.52;;;3.13;;
583;SDS011;27024;54.068;12.116;2023-04-09T15:26:11;7.00;;;3.58;;
583;SDS011;27024;54.068;12.116;2023-04-09T15:28:38;7.00;;;3.25;;
583;SDS011;27024;54.068;12.116;2023-04-09T15:31:06;7.78;;;2.78;;
583;SDS011;27024;54.068;12.116;2023-04-09T15:33:33;10.32;;;3.60;;
583;SDS011;27024;54.068;12.116;2023-04-09T15:36:00;6.35;;;3.40;;
583;SDS011;27024;54.068;12.116;2023-04-09T15:38:27;6.93;;;2.97;;
583;SDS011;27024;54.068;12.116;2023-04-09T15:40:54;6.63;;;3.30;;
583;SDS011;27024;54.068;12.116;2023-04-09T15:43:22;8.38;;;3.30;;
583;SDS011;27024;54.068;12.116;2023-04-09T15:45:49;7.35;;;3.03;;
583;SDS011;27024;54.068;12.116;2023-04-09T15:48:16;7.60;;;3.20;;
583;SDS011;27024;54.068;12.116;2023-04-09T15:50:44;7.63;;;3.72;;
583;SDS011;27024;54.068;12.116;2023-04-09T15:53:12;8.85;;;3.50;;
583;SDS011;27024;54.068;12.116;2023-04-09T15:55:40;6.10;;;2.80;;
583;SDS011;27024;54.068;12.116;2023-04-09T15:58:07;7.10;;;2.83;;
583;SDS011;27024;54.068;12.116;2023-04-09T16:00:34;8.50;;;3.13;;
583;SDS011;27024;54.068;12.116;2023-04-09T16:03:01;8.45;;;3.30;;
583;SDS011;27024;54.068;12.116;2023-04-09T16:05:28;6.82;;;2.80;;
583;SDS011;27024;54.068;12.116;2023-04-09T16:07:55;6.28;;;3.03;;
583;SDS011;27024;54.068;12.116;2023-04-09T16:10:25;7.32;;;3.55;;
583;SDS011;27024;54.068;12.116;2023-04-09T16:12:52;6.05;;;3.20;;
583;SDS011;27024;54.068;12.116;2023-04-09T16:15:20;6.53;;;3.10;;
583;SDS011;27024;54.068;12.116;2023-04-09T16:17:47;7.13;;;3.03;;
583;SDS011;27024;54.068;12.116;2023-04-09T16:20:13;7.85;;;3.33;;
583;SDS011;27024;54.068;12.116;2023-04-09T16:22:40;6.50;;;2.67;;
583;SDS011;27024;54.068;12.116;2023-04-09T16:25:07;6.80;;;3.40;;
583;SDS011;27024;54.068;12.116;2023-04-09T16:27:34;8.52;;;3.70;;
583;SDS011;27024;54.068;12.116;2023-04-09T16:30:01;7.88;;;3.50;;
583;SDS011;27024;54.068;12.116;2023-04-09T16:32:28;10.23;;;3.95;;
583;SDS011;27024;54.068;12.116;2023-04-09T16:34:55;8.60;;;3.00;;
583;SDS011;27024;54.068;12.116;2023-04-09T16:37:26;9.52;;;4.05;;
583;SDS011;27024;54.068;12.116;2023-04-09T16:39:53;8.43;;;3.75;;
583;SDS011;27024;54.068;12.116;2023-04-09T16:42:20;9.45;;;3.67;;
583;SDS011;27024;54.068;12.116;2023-04-09T16:44:47;7.35;;;3.28;;
583;SDS011;27024;54.068;12.116;2023-04-09T16:47:14;7.13;;;3.53;;
583;SDS011;27024;54.068;12.116;2023-04-09T16:49:41;6.70;;;3.42;;
583;SDS011;27024;54.068;12.116;2023-04-09T16:52:08;8.40;;;3.75;;
583;SDS011;27024;54.068;12.116;2023-04-09T16:54:35;7.40;;;3.63;;
583;SDS011;27024;54.068;12.116;2023-04-09T16:57:02;6.38;;;3.63;;
583;SDS011;27024;54.068;12.116;2023-04-09T16:59:29;7.68;;;3.92;;
583;SDS011;27024;54.068;12.116;2023-04-09T17:01:56;8.30;;;4.25;;
583;SDS011;27024;54.068;12.116;2023-04-09T17:04:23;8.02;;;4.22;;
583;SDS011;27024;54.068;12.116;2023-04-09T17:06:50;6.80;;;4.13;;
583;SDS011;27024;54.068;12.116;2023-04-09T17:09:17;9.05;;;4.68;;
583;SDS011;27024;54.068;12.116;2023-04-09T17:11:44;9.68;;;4.50;;
583;SDS011;27024;54.068;12.116;2023-04-09T17:14:12;9.15;;;4.55;;
583;SDS011;27024;54.068;12.116;2023-04-09T17:16:38;11.80;;;4.32;;
583;SDS011;27024;54.068;12.116;2023-04-09T17:19:05;11.02;;;5.40;;
583;SDS011;27024;54.068;12.116;2023-04-09T17:21:32;10.23;;;4.93;;
583;SDS011;27024;54.068;12.116;2023-04-09T17:23:59;9.40;;;4.53;;
583;SDS011;27024;54.068;12.116;2023-04-09T17:26:28;14.85;;;5.65;;
583;SDS011;27024;54.068;12.116;2023-04-09T17:28:54;10.20;;;5.28;;
583;SDS011;27024;54.068;12.116;2023-04-09T17:31:21;9.43;;;4.70;;
583;SDS011;27024;54.068;12.116;2023-04-09T17:33:50;11.13;;;5.28;;
583;SDS011;27024;54.068;12.116;2023-04-09T17:36:17;9.57;;;4.78;;
583;SDS011;27024;54.068;12.116;2023-04-09T17:38:45;13.00;;;5.28;;
583;SDS011;27024;54.068;12.116;2023-04-09T17:41:13;13.35;;;5.78;;
583;SDS011;27024;54.068;12.116;2023-04-09T17:43:39;11.70;;;5.78;;
583;SDS011;27024;54.068;12.116;2023-04-09T17:46:07;10.43;;;5.03;;
583;SDS011;27024;54.068;12.116;2023-04-09T17:48:37;11.10;;;4.90;;
583;SDS011;27024;54.068;12.116;2023-04-09T17:51:04;9.30;;;4.57;;
583;SDS011;27024;54.068;12.116;2023-04-09T17:53:31;9.73;;;4.82;;
583;SDS011;27024;54.068;12.116;2023-04-09T17:55:58;11.60;;;4.70;;
583;SDS011;27024;54.068;12.116;2023-04-09T17:58:28;7.78;;;4.38;;
583;SDS011;27024;54.068;12.116;2023-04-09T18:00:55;9.05;;;3.97;;
583;SDS011;27024;54.068;12.116;2023-04-09T18:03:22;8.20;;;4.05;;
583;SDS011;27024;54.068;12.116;2023-04-09T18:05:49;9.40;;;4.75;;
583;SDS011;27024;54.068;12.116;2023-04-09T18:08:16;8.52;;;4.30;;
583;SDS011;27024;54.068;12.116;2023-04-09T18:10:43;9.55;;;5.60;;
583;SDS011;27024;54.068;12.116;2023-04-09T18:13:09;9.35;;;5.20;;
583;SDS011;27024;54.068;12.116;2023-04-09T18:15:37;10.23;;;4.90;;
583;SDS011;27024;54.068;12.116;2023-04-09T18:18:03;7.78;;;3.78;;
583;SDS011;27024;54.068;12.116;2023-04-09T18:20:30;7.55;;;3.80;;
583;SDS011;27024;54.068;12.116;2023-04-09T18:22:57;7.53;;;3.65;;
583;SDS011;27024;54.068;12.116;2023-04-09T18:25:24;6.95;;;3.53;;
583;SDS011;27024;54.068;12.116;2023-04-09T18:27:51;7.10;;;3.60;;
583;SDS011;27024;54.068;12.116;2023-04-09T18:30:18;6.68;;;3.63;;
583;SDS011;27024;54.068;12.116;2023-04-09T18:32:45;8.07;;;3.95;;
583;SDS011;27024;54.068;12.116;2023-04-09T18:35:13;8.73;;;3.50;;
583;SDS011;27024;54.068;12.116;2023-04-09T18:37:40;7.68;;;3.85;;
583;SDS011;27024;54.068;12.116;2023-04-09T18:40:08;8.65;;;4.03;;
583;SDS011;27024;54.068;12.116;2023-04-09T18:42:40;8.35;;;3.67;;
583;SDS011;27024;54.068;12.116;2023-04-09T18:45:07;8.25;;;4.38;;
583;SDS011;27024;54.068;12.116;2023-04-09T18:47:34;8.60;;;3.70;;
583;SDS011;27024;54.068;12.116;2023-04-09T18:50:02;7.60;;;3.60;;
583;SDS011;27024;54.068;12.116;2023-04-09T18:52:29;7.20;;;3.78;;
583;SDS011;27024;54.068;12.116;2023-04-09T18:54:56;10.48;;;4.45;;
583;SDS011;27024;54.068;12.116;2023-04-09T18:57:24;12.20;;;5.65;;
583;SDS011;27024;54.068;12.116;2023-04-09T18:59:50;12.70;;;6.43;;
583;SDS011;27024;54.068;12.116;2023-04-09T19:02:18;13.15;;;6.43;;
583;SDS011;27024;54.068;12.116;2023-04-09T19:04:45;14.70;;;7.25;;
583;SDS011;27024;54.068;12.116;2023-04-09T19:07:12;14.63;;;7.15;;
583;SDS011;27024;54.068;12.116;2023-04-09T19:09:39;16.00;;;7.15;;
583;SDS011;27024;54.068;12.116;2023-04-09T19:12:07;13.52;;;6.50;;
583;SDS011;27024;54.068;12.116;2023-04-09T19:14:33;12.95;;;5.88;;
583;SDS011;27024;54.068;12.116;2023-04-09T19:17:01;11.43;;;5.40;;
583;SDS011;27024;54.068;12.116;2023-04-09T19:19:28;12.27;;;6.07;;
583;SDS011;27024;54.068;12.116;2023-04-09T19:21:55;12.10;;;5.35;;
583;SDS011;27024;54.068;12.116;2023-04-09T19:24:22;9.43;;;5.10;;
583;SDS011;27024;54.068;12.116;2023-04-09T19:26:50;11.10;;;5.07;;
583;SDS011;27024;54.068;12.116;2023-04-09T19:29:18;10.32;;;5.43;;
583;SDS011;27024;54.068;12.116;2023-04-09T19:31:45;9.80;;;5.07;;
583;SDS011;27024;54.068;12.116;2023-04-09T19:34:12;10.32;;;6.30;;
583;SDS011;27024;54.068;12.116;2023-04-09T19:36:40;11.07;;;5.93;;
583;SDS011;27024;54.068;12.116;2023-04-09T19:39:06;11.15;;;6.20;;
583;SDS011;27024;54.068;12.116;2023-04-09T19:41:36;12.18;;;6.50;;
583;SDS011;27024;54.068;12.116;2023-04-09T19:44:03;13.02;;;6.32;;
583;SDS011;27024;54.068;12.116;2023-04-09T19:46:32;13.55;;;6.25;;
583;SDS011;27024;54.068;12.116;2023-04-09T19:49:00;10.60;;;6.20;;
583;SDS011;27024;54.068;12.116;2023-04-09T19:51:26;12.00;;;7.15;;
583;SDS011;27024;54.068;12.116;2023-04-09T19:53:54;16.20;;;6.63;;
583;SDS011;27024;54.068;12.116;2023-04-09T19:56:21;11.93;;;6.55;;
583;SDS011;27024;54.068;12.116;2023-04-09T19:58:48;11.55;;;6.70;;
583;SDS011;27024;54.068;12.116;2023-04-09T20:01:15;11.48;;;6.03;;
583;SDS011;27024;54.068;12.116;2023-04-09T20:03:42;10.40;;;5.93;;
583;SDS011;27024;54.068;12.116;2023-04-09T20:06:09;12.10;;;5.50;;
583;SDS011;27024;54.068;12.116;2023-04-09T20:08:36;10.55;;;5.28;;
583;SDS011;27024;54.068;12.116;2023-04-09T20:11:03;10.88;;;5.55;;
583;SDS011;27024;54.068;12.116;2023-04-09T20:13:31;10.85;;;5.47;;
583;SDS011;27024;54.068;12.116;2023-04-09T20:15:58;10.05;;;5.38;;
583;SDS011;27024;54.068;12.116;2023-04-09T20:18:25;9.65;;;5.93;;
583;SDS011;27024;54.068;12.116;2023-04-09T20:20:52;12.30;;;6.50;;
583;SDS011;27024;54.068;12.116;2023-04-09T20:23:20;10.52;;;6.22;;
583;SDS011;27024;54.068;12.116;2023-04-09T20:25:50;10.55;;;6.57;;
583;SDS011;27024;54.068;12.116;2023-04-09T20:28:19;11.70;;;6.20;;
583;SDS011;27024;54.068;12.116;2023-04-09T20:30:46;10.52;;;6.05;;
583;SDS011;27024;54.068;12.116;2023-04-09T20:33:13;11.95;;;6.93;;
583;SDS011;27024;54.068;12.116;2023-04-09T20:35:40;12.70;;;7.30;;
583;SDS011;27024;54.068;12.116;2023-04-09T20:38:06;14.55;;;6.55;;
583;SDS011;27024;54.068;12.116;2023-04-09T20:40:34;13.27;;;6.78;;
583;SDS011;27024;54.068;12.116;2023-04-09T20:43:02;13.55;;;6.45;;
583;SDS011;27024;54.068;12.116;2023-04-09T20:45:29;10.80;;;6.43;;
583;SDS011;27024;54.068;12.116;2023-04-09T20:47:56;12.43;;;6.90;;
583;SDS011;27024;54.068;12.116;2023-04-09T20:50:23;11.73;;;6.35;;
583;SDS011;27024;54.068;12.116;2023-04-09T20:52:49;11.45;;;6.40;;
583;SDS011;27024;54.068;12.116;2023-04-09T20:55:16;11.23;;;6.03;;
583;SDS011;27024;54.068;12.116;2023-04-09T20:57:43;11.95;;;6.43;;
583;SDS011;27024;54.068;12.116;2023-04-09T21:00:10;12.05;;;6.47;;
583;SDS011;27024;54.068;12.116;2023-04-09T21:02:37;10.07;;;5.93;;
583;SDS011;27024;54.068;12.116;2023-04-09T21:05:06;12.75;;;6.47;;
583;SDS011;27024;54.068;12.116;2023-04-09T21:07:49;13.27;;;6.10;;
583;SDS011;27024;54.068;12.116;2023-04-09T21:10:17;10.52;;;5.78;;
583;SDS011;27024;54.068;12.116;2023-04-09T21:12:44;11.63;;;5.70;;
583;SDS011;27024;54.068;12.116;2023-04-09T21:15:11;11.68;;;5.70;;
583;SDS011;27024;54.068;12.116;2023-04-09T21:17:37;9.60;;;5.57;;
583;SDS011;27024;54.068;12.116;2023-04-09T21:20:04;11.23;;;6.00;;
583;SDS011;27024;54.068;12.116;2023-04-09T21:22:32;11.55;;;5.55;;
583;SDS011;27024;54.068;12.116;2023-04-09T21:25:00;10.05;;;5.57;;
583;SDS011;27024;54.068;12.116;2023-04-09T21:27:28;12.77;;;5.78;;
583;SDS011;27024;54.068;12.116;2023-04-09T21:29:55;14.40;;;6.05;;
583;SDS011;27024;54.068;12.116;2023-04-09T21:32:22;10.88;;;5.47;;
583;SDS011;27024;54.068;12.116;2023-04-09T21:34:50;9.68;;;5.13;;
583;SDS011;27024;54.068;12.116;2023-04-09T21:37:17;11.02;;;5.15;;
583;SDS011;27024;54.068;12.116;2023-04-09T21:39:44;7.93;;;4.35;;
583;SDS011;27024;54.068;12.116;2023-04-09T21:42:11;7.85;;;4.50;;
583;SDS011;27024;54.068;12.116;2023-04-09T21:44:38;10.25;;;5.18;;
583;SDS011;27024;54.068;12.116;2023-04-09T21:47:05;9.27;;;4.97;;
583;SDS011;27024;54.068;12.116;2023-04-09T21:49:35;9.75;;;5.28;;
583;SDS011;27024;54.068;12.116;2023-04-09T21:52:06;9.60;;;5.43;;
583;SDS011;27024;54.068;12.116;2023-04-09T21:54:40;9.40;;;5.20;;
583;SDS011;27024;54.068;12.116;2023-04-09T21:57:08;10.70;;;5.25;;
583;SDS011;27024;54.068;12.116;2023-04-09T21:59:36;9.50;;;5.38;;
583;SDS011;27024;54.068;12.116;2023-04-09T22:02:03;10.07;;;5.95;;
583;SDS011;27024;54.068;12.116;2023-04-09T22:04:30;9.55;;;5.68;;
583;SDS011;27024;54.068;12.116;2023-04-09T22:06:58;11.95;;;5.63;;
583;SDS011;27024;54.068;12.116;2023-04-09T22:09:24;9.75;;;6.00;;
583;SDS011;27024;54.068;12.116;2023-04-09T22:11:51;11.70;;;6.07;;
583;SDS011;27024;54.068;12.116;2023-04-09T22:14:20;11.00;;;6.00;;
583;SDS011;27024;54.068;12.116;2023-04-09T22:16:47;11.07;;;5.80;;
583;SDS011;27024;54.068;12.116;2023-04-09T22:19:14;10.38;;;5.40;;
583;SDS011;27024;54.068;12.116;2023-04-09T22:21:40;11.05;;;5.72;;
583;SDS011;27024;54.068;12.116;2023-04-09T22:24:07;13.57;;;5.97;;
583;SDS011;27024;54.068;12.116;2023-04-09T22:26:34;9.88;;;5.45;;
583;SDS011;27024;54.068;12.116;2023-04-09T22:29:01;11.50;;;6.10;;
583;SDS011;27024;54.068;12.116;2023-04-09T22:31:31;13.70;;;5.97;;
583;SDS011;27024;54.068;12.116;2023-04-09T22:33:57;13.45;;;5.90;;
583;SDS011;27024;54.068;12.116;2023-04-09T22:36:38;10.35;;;6.03;;
583;SDS011;27024;54.068;12.116;2023-04-09T22:39:06;9.50;;;5.15;;
583;SDS011;27024;54.068;12.116;2023-04-09T22:41:33;9.90;;;4.93;;
583;SDS011;27024;54.068;12.116;2023-04-09T22:44:00;10.48;;;5.00;;
583;SDS011;27024;54.068;12.116;2023-04-09T22:46:27;10.57;;;5.55;;
583;SDS011;27024;54.068;12.116;2023-04-09T22:48:54;10.40;;;5.75;;
583;SDS011;27024;54.068;12.116;2023-04-09T22:51:30;11.77;;;5.05;;
583;SDS011;27024;54.068;12.116;2023-04-09T22:54:00;13.38;;;5.93;;
583;SDS011;27024;54.068;12.116;2023-04-09T22:56:28;10.60;;;5.50;;
583;SDS011;27024;54.068;12.116;2023-04-09T22:58:57;11.63;;;5.07;;
583;SDS011;27024;54.068;12.116;2023-04-09T23:01:23;9.95;;;5.50;;
583;SDS011;27024;54.068;12.116;2023-04-09T23:03:50;12.32;;;5.32;;
583;SDS011;27024;54.068;12.116;2023-04-09T23:06:17;10.77;;;5.65;;
583;SDS011;27024;54.068;12.116;2023-04-09T23:08:44;10.38;;;5.25;;
583;SDS011;27024;54.068;12.116;2023-04-09T23:11:11;11.57;;;5.22;;
583;SDS011;27024;54.068;12.116;2023-04-09T23:13:38;11.27;;;5.50;;
583;SDS011;27024;54.068;12.116;2023-04-09T23:16:06;12.95;;;5.57;;
583;SDS011;27024;54.068;12.116;2023-04-09T23:18:34;11.70;;;5.82;;
583;SDS011;27024;54.068;12.116;2023-04-09T23:21:02;11.05;;;5.50;;
583;SDS011;27024;54.068;12.116;2023-04-09T23:23:30;10.65;;;5.00;;
583;SDS011;27024;54.068;12.116;2023-04-09T23:25:57;10.15;;;5.53;;
583;SDS011;27024;54.068;12.116;2023-04-09T23:28:23;10.45;;;5.38;;
583;SDS011;27024;54.068;12.116;2023-04-09T23:30:50;9.65;;;5.68;;
583;SDS011;27024;54.068;12.116;2023-04-09T23:33:17;13.13;;;5.95;;
583;SDS011;27024;54.068;12.116;2023-04-09T23:35:44;11.23;;;5.63;;
583;SDS011;27024;54.068;12.116;2023-04-09T23:38:12;14.82;;;6.30;;
583;SDS011;27024;54.068;12.116;2023-04-09T23:40:40;10.80;;;6.00;;
583;SDS011;27024;54.068;12.116;2023-04-09T23:43:07;10.85;;;6.63;;
583;SDS011;27024;54.068;12.116;2023-04-09T23:45:34;11.25;;;6.25;;
583;SDS011;27024;54.068;12.116;2023-04-09T23:48:01;12.35;;;5.82;;
583;SDS011;27024;54.068;12.116;2023-04-09T23:50:29;13.98;;;6.30;;
583;SDS011;27024;54.068;12.116;2023-04-09T23:52:56;12.57;;;5.88;;
583;SDS011;27024;54.068;12.116;2023-04-09T23:55:25;12.15;;;6.18;;
583;SDS011;27024;54.068;12.116;2023-04-09T23:57:52;13.68;;;6.55;;
